createdAt,value
2019-01-23T00:00:56.718Z,50.50
2019-01-23T00:03:26.118Z,49.03
2019-01-23T00:05:55.476Z,47.30
2019-01-23T00:08:24.856Z,47.07
2019-01-23T00:10:54.215Z,52.37
2019-01-23T00:13:23.610Z,48.03
2019-01-23T00:15:52.994Z,53.67
2019-01-23T00:18:22.375Z,49.77
2019-01-23T00:20:51.748Z,47.77
2019-01-23T00:23:21.131Z,48.53
2019-01-23T00:25:50.522Z,46.60
2019-01-23T00:28:19.894Z,50.03
2019-01-23T00:30:49.281Z,52.43
2019-01-23T00:33:23.143Z,53.93
2019-01-23T00:35:52.571Z,48.03
2019-01-23T00:38:21.934Z,50.47
2019-01-23T00:40:51.362Z,49.00
2019-01-23T00:43:20.755Z,52.00
2019-01-23T00:45:50.120Z,49.70
2019-01-23T00:48:19.513Z,53.23
2019-01-23T00:50:48.894Z,54.70
2019-01-23T00:53:18.272Z,53.53
2019-01-23T00:55:47.650Z,49.43
2019-01-23T00:58:17.034Z,54.97
2019-01-23T01:00:46.423Z,52.87
2019-01-23T01:03:15.796Z,55.10
2019-01-23T01:05:45.179Z,53.93
2019-01-23T01:08:14.531Z,53.90
2019-01-23T01:10:43.850Z,55.37
2019-01-23T01:13:13.376Z,52.40
2019-01-23T01:15:42.797Z,52.20
2019-01-23T01:18:12.170Z,55.10
2019-01-23T01:20:41.684Z,56.23
2019-01-23T01:23:11.193Z,52.87
2019-01-23T01:25:40.693Z,58.77
2019-01-23T01:28:10.117Z,54.80
2019-01-23T01:30:39.515Z,58.60
2019-01-23T01:33:08.896Z,54.80
2019-01-23T01:35:38.274Z,53.97
2019-01-23T01:38:07.658Z,54.53
2019-01-23T01:40:37.040Z,58.17
2019-01-23T01:43:08.048Z,56.17
2019-01-23T01:45:37.441Z,54.37
2019-01-23T01:48:06.807Z,57.97
2019-01-23T01:50:36.183Z,60.63
2019-01-23T01:53:05.689Z,57.87
2019-01-23T01:55:35.051Z,54.27
2019-01-23T01:58:04.680Z,54.57
2019-01-23T02:00:34.056Z,55.37
2019-01-23T02:03:03.803Z,60.33
2019-01-23T02:05:33.171Z,59.93
2019-01-23T02:08:02.576Z,58.73
2019-01-23T02:10:31.867Z,59.37
2019-01-23T02:13:01.234Z,62.27
2019-01-23T02:15:30.636Z,62.47
2019-01-23T02:18:00.030Z,61.50
2019-01-23T02:20:29.550Z,64.83
2019-01-23T02:22:58.980Z,57.93
2019-01-23T02:25:28.374Z,59.40
2019-01-23T02:27:58.145Z,61.67
2019-01-23T02:30:27.647Z,68.70
2019-01-23T02:32:57.099Z,64.83
2019-01-23T02:35:26.488Z,61.33
2019-01-23T02:37:55.988Z,62.53
2019-01-23T02:40:25.357Z,62.40
2019-01-23T02:42:54.843Z,63.87
2019-01-23T02:45:24.427Z,65.50
2019-01-23T02:47:53.905Z,67.00
2019-01-23T02:50:23.206Z,68.30
2019-01-23T02:52:52.650Z,65.17
2019-01-23T02:55:22.024Z,69.47
2019-01-23T02:57:51.387Z,65.03
2019-01-23T03:00:23.727Z,67.97
2019-01-23T03:02:53.222Z,66.97
2019-01-23T03:05:22.696Z,68.20
2019-01-23T03:07:52.074Z,70.53
2019-01-23T03:10:21.640Z,65.53
2019-01-23T03:12:51.097Z,67.83
2019-01-23T03:15:20.526Z,70.07
2019-01-23T03:17:49.915Z,67.07
2019-01-23T03:20:20.022Z,65.10
2019-01-23T03:22:49.399Z,67.03
2019-01-23T03:25:19.107Z,67.30
2019-01-23T03:27:48.619Z,67.57
2019-01-23T03:30:20.146Z,70.07
2019-01-23T03:32:49.663Z,67.03
2019-01-23T03:35:19.068Z,75.37
2019-01-23T03:37:48.503Z,73.43
2019-01-23T03:40:19.718Z,69.63
2019-01-23T03:42:49.175Z,63.90
2019-01-23T03:45:18.686Z,69.37
2019-01-23T03:47:48.184Z,68.17
2019-01-23T03:50:18.907Z,62.43
2019-01-23T03:52:48.513Z,74.13
2019-01-23T03:55:19.214Z,77.53
2019-01-23T03:57:48.658Z,69.47
2019-01-23T04:00:19.857Z,76.43
2019-01-23T04:02:50.875Z,68.43
2019-01-23T04:05:20.384Z,68.77
2019-01-23T04:07:49.847Z,73.70
2019-01-23T04:10:19.483Z,73.17
2019-01-23T04:12:48.843Z,77.57
2019-01-23T04:15:18.569Z,68.50
2019-01-23T04:17:48.073Z,78.87
2019-01-23T04:20:19.522Z,75.17
2019-01-23T04:22:49.024Z,71.60
2019-01-23T04:25:18.538Z,79.13
2019-01-23T04:27:47.996Z,75.57
2019-01-23T04:30:19.409Z,80.33
2019-01-23T04:32:48.807Z,72.10
2019-01-23T04:35:18.319Z,79.83
2019-01-23T04:37:47.873Z,77.43
2019-01-23T04:40:17.238Z,76.97
2019-01-23T04:42:46.727Z,77.23
2019-01-23T04:45:17.260Z,74.50
2019-01-23T04:47:46.607Z,72.63
2019-01-23T04:50:17.536Z,74.07
2019-01-23T04:52:53.221Z,73.83
2019-01-23T04:55:22.661Z,76.93
2019-01-23T04:57:52.040Z,68.90
2019-01-23T05:00:23.136Z,71.93
2019-01-23T05:02:54.128Z,71.93
2019-01-23T05:05:23.572Z,74.50
2019-01-23T05:07:52.937Z,72.10
2019-01-23T05:10:22.326Z,66.80
2019-01-23T05:12:51.699Z,68.20
2019-01-23T05:15:21.234Z,70.23
2019-01-23T05:17:50.628Z,70.97
2019-01-23T05:20:20.028Z,74.50
2019-01-23T05:22:52.115Z,77.50
2019-01-23T05:25:21.595Z,68.20
2019-01-23T05:27:50.996Z,73.83
2019-01-23T05:30:22.511Z,71.10
2019-01-23T05:32:51.981Z,73.07
2019-01-23T05:35:21.422Z,78.60
2019-01-23T05:37:50.861Z,72.17
2019-01-23T05:40:20.291Z,82.77
2019-01-23T05:42:49.655Z,73.57
2019-01-23T05:45:19.135Z,65.20
2019-01-23T05:47:48.504Z,69.67
2019-01-23T05:50:20.300Z,72.27
2019-01-23T05:52:49.666Z,74.57
2019-01-23T05:55:19.094Z,72.63
2019-01-23T05:57:48.495Z,80.27
2019-01-23T06:00:20.460Z,76.60
2019-01-23T06:02:50.014Z,75.00
2019-01-23T06:05:20.145Z,75.47
2019-01-23T06:07:49.597Z,77.00
2019-01-23T06:10:19.040Z,72.13
2019-01-23T06:12:48.415Z,68.00
2019-01-23T06:15:17.869Z,77.50
2019-01-23T06:17:47.294Z,77.07
2019-01-23T06:20:18.915Z,76.93
2019-01-23T06:22:48.283Z,85.67
2019-01-23T06:25:17.830Z,81.03
2019-01-23T06:27:47.263Z,88.13
2019-01-23T06:30:24.518Z,79.27
2019-01-23T06:32:53.991Z,69.73
2019-01-23T06:35:23.443Z,73.83
2019-01-23T06:37:52.871Z,74.77
2019-01-23T06:40:22.355Z,77.43
2019-01-23T06:42:51.742Z,71.60
2019-01-23T06:45:21.165Z,84.03
2019-01-23T06:47:50.633Z,77.53
2019-01-23T06:50:21.355Z,69.27
2019-01-23T06:52:53.795Z,66.43
2019-01-23T06:55:23.287Z,66.33
2019-01-23T06:57:52.760Z,66.17
2019-01-23T07:00:23.392Z,66.83
2019-01-23T07:02:53.028Z,70.63
2019-01-23T07:05:22.665Z,67.77
2019-01-23T07:07:53.510Z,69.83
2019-01-23T07:10:24.348Z,66.63
2019-01-23T07:12:53.794Z,70.07
2019-01-23T07:15:23.190Z,69.07
2019-01-23T07:17:52.486Z,68.83
2019-01-23T07:20:25.032Z,69.60
2019-01-23T07:22:58.828Z,74.63
2019-01-23T07:25:28.332Z,70.80
2019-01-23T07:27:57.707Z,62.43
2019-01-23T07:30:32.955Z,67.13
2019-01-23T07:33:02.427Z,71.07
2019-01-23T07:35:31.977Z,68.87
2019-01-23T07:38:01.530Z,66.23
2019-01-23T07:40:30.833Z,70.20
2019-01-23T07:43:00.211Z,63.10
2019-01-23T07:45:29.639Z,66.30
2019-01-23T07:47:59.009Z,66.23
2019-01-23T07:50:28.387Z,59.67
2019-01-23T07:52:58.266Z,61.70
2019-01-23T07:55:27.635Z,60.17
2019-01-23T07:57:57.023Z,67.53
2019-01-23T08:00:31.334Z,61.87
2019-01-23T08:02:58.545Z,59.07
2019-01-23T08:05:27.995Z,59.77
2019-01-23T08:07:57.504Z,55.97
2019-01-23T08:10:26.887Z,60.80
2019-01-23T08:12:56.322Z,55.83
2019-01-23T08:15:28.362Z,56.43
2019-01-23T08:18:00.720Z,62.10
2019-01-23T08:20:32.948Z,60.50
2019-01-23T08:23:02.316Z,58.80
2019-01-23T08:25:31.696Z,64.00
2019-01-23T08:28:01.228Z,58.63
2019-01-23T08:30:30.765Z,55.27
2019-01-23T08:33:00.158Z,52.70
2019-01-23T08:35:29.533Z,61.00
2019-01-23T08:37:58.932Z,49.57
2019-01-23T08:40:28.363Z,52.13
2019-01-23T08:42:57.754Z,54.50
2019-01-23T08:45:27.115Z,55.47
2019-01-23T08:47:56.481Z,53.87
2019-01-23T08:50:28.658Z,56.37
2019-01-23T08:52:58.014Z,54.10
2019-01-23T08:55:27.353Z,81.57
2019-01-23T08:57:56.704Z,64.13
2019-01-23T09:00:26.235Z,59.63
2019-01-23T09:02:55.670Z,59.57
2019-01-23T09:05:25.237Z,65.60
2019-01-23T09:07:54.618Z,58.53
2019-01-23T09:10:25.820Z,62.73
2019-01-23T09:12:55.220Z,62.63
2019-01-23T09:15:24.651Z,61.70
2019-01-23T09:17:54.082Z,56.57
2019-01-23T09:20:23.842Z,54.73
2019-01-23T09:22:53.141Z,57.57
2019-01-23T09:25:25.322Z,57.70
2019-01-23T09:27:54.831Z,57.00
2019-01-23T09:30:26.941Z,54.83
2019-01-23T09:33:22.661Z,56.63
2019-01-23T09:35:57.907Z,57.43
2019-01-23T09:38:39.213Z,55.03
2019-01-23T09:41:14.079Z,54.43
2019-01-23T09:44:01.205Z,50.10
2019-01-23T09:46:36.537Z,60.47
2019-01-23T09:49:12.165Z,56.30
2019-01-23T09:52:15.734Z,52.40
2019-01-23T09:54:45.102Z,56.67
2019-01-23T09:57:14.479Z,56.70
2019-01-23T09:59:43.877Z,54.17
2019-01-23T10:02:13.320Z,51.93
2019-01-23T10:04:42.617Z,48.97
2019-01-23T10:07:12.001Z,52.03
2019-01-23T10:09:41.412Z,55.83
2019-01-23T10:12:10.892Z,56.53
2019-01-23T10:14:41.621Z,52.73
2019-01-23T10:17:11.038Z,54.90
2019-01-23T10:19:40.429Z,54.93
2019-01-23T10:22:09.853Z,55.00
2019-01-23T10:24:39.245Z,48.97
2019-01-23T10:27:08.614Z,49.67
2019-01-23T10:29:37.991Z,54.83
2019-01-23T10:32:07.351Z,49.77
2019-01-23T10:34:36.714Z,53.07
2019-01-23T10:37:07.895Z,53.00
2019-01-23T10:39:38.717Z,53.13
2019-01-23T10:42:08.208Z,49.70
2019-01-23T10:44:37.580Z,51.20
2019-01-23T10:47:06.960Z,52.00
2019-01-23T10:49:36.367Z,49.70
2019-01-23T10:52:05.743Z,48.97
2019-01-23T10:54:35.125Z,49.83
2019-01-23T10:57:04.741Z,46.87
2019-01-23T10:59:34.131Z,47.33
2019-01-23T11:02:03.566Z,47.87
2019-01-23T11:04:32.950Z,49.83
2019-01-23T11:07:03.139Z,46.20
2019-01-23T11:09:32.528Z,51.93
2019-01-23T11:12:01.885Z,46.73
2019-01-23T11:14:31.262Z,53.23
2019-01-23T11:17:00.646Z,46.47
2019-01-23T11:19:30.006Z,45.73
2019-01-23T11:22:00.918Z,48.43
2019-01-23T11:24:30.282Z,50.63
2019-01-23T11:26:59.677Z,47.37
2019-01-23T11:29:29.048Z,47.73
2019-01-23T11:31:58.409Z,43.53
2019-01-23T11:34:27.889Z,45.00
2019-01-23T11:36:57.370Z,45.30
2019-01-23T11:39:26.758Z,42.40
2019-01-23T11:41:56.121Z,38.70
2019-01-23T11:44:27.481Z,54.53
2019-01-23T11:46:57.081Z,44.30
2019-01-23T11:49:26.514Z,45.03
2019-01-23T11:51:55.895Z,43.60
2019-01-23T11:54:25.540Z,44.77
2019-01-23T11:56:58.170Z,46.63
2019-01-23T11:59:27.747Z,48.13
2019-01-23T12:01:57.318Z,51.03
2019-01-23T12:04:30.802Z,46.30
2019-01-23T12:07:00.484Z,47.87
2019-01-23T12:09:30.009Z,46.73
2019-01-23T12:12:04.319Z,47.90
2019-01-23T12:14:39.597Z,44.90
2019-01-23T12:17:09.918Z,43.80
2019-01-23T12:19:44.174Z,44.43
2019-01-23T12:22:16.050Z,44.97
2019-01-23T12:24:45.747Z,42.97
2019-01-23T12:27:15.246Z,43.33
2019-01-23T12:29:44.751Z,47.03
2019-01-23T12:32:14.124Z,47.30
2019-01-23T12:34:43.532Z,43.97
2019-01-23T12:37:13.428Z,41.23
2019-01-23T12:39:42.818Z,40.23
2019-01-23T12:42:12.254Z,45.17
2019-01-23T12:44:41.814Z,46.57
2019-01-23T12:47:11.204Z,43.53
2019-01-23T12:49:41.005Z,47.80
2019-01-23T12:52:10.480Z,44.63
2019-01-23T12:54:39.905Z,47.23
2019-01-23T12:57:09.291Z,47.97
2019-01-23T12:59:38.644Z,46.87
2019-01-23T13:02:09.829Z,52.57
2019-01-23T13:04:39.381Z,58.70
2019-01-23T13:07:08.771Z,54.17
2019-01-23T13:09:38.131Z,63.50
2019-01-23T13:12:07.509Z,75.97
2019-01-23T13:14:36.884Z,60.83
2019-01-23T13:17:06.254Z,93.80
2019-01-23T13:19:35.647Z,56.07
2019-01-23T13:22:08.057Z,56.63
2019-01-23T13:24:37.597Z,60.03
2019-01-23T13:27:08.483Z,64.93
2019-01-23T13:29:37.982Z,62.80
2019-01-23T13:32:07.908Z,58.83
2019-01-23T13:34:37.303Z,53.73
2019-01-23T13:37:07.183Z,54.50
2019-01-23T13:39:36.533Z,54.87
2019-01-23T13:42:05.997Z,58.43
2019-01-23T13:44:38.262Z,56.30
2019-01-23T13:47:07.762Z,54.70
2019-01-23T13:49:37.217Z,63.17
2019-01-23T13:52:06.753Z,56.97
2019-01-23T13:54:36.169Z,59.63
2019-01-23T13:57:05.611Z,53.10
2019-01-23T13:59:35.044Z,57.70
2019-01-23T14:02:04.581Z,61.60
2019-01-23T14:04:33.964Z,64.67
2019-01-23T14:07:03.386Z,59.00
2019-01-23T14:09:32.816Z,60.30
2019-01-23T14:12:02.167Z,57.67
2019-01-23T14:14:31.577Z,58.63
2019-01-23T14:17:00.952Z,63.47
2019-01-23T14:19:32.675Z,61.30
2019-01-23T14:22:01.286Z,59.90
2019-01-23T14:24:30.652Z,63.63
2019-01-23T14:27:00.350Z,64.83
2019-01-23T14:29:29.708Z,61.30
2019-01-23T14:32:03.397Z,60.97
2019-01-23T14:34:30.236Z,59.03
2019-01-23T14:36:59.658Z,60.27
2019-01-23T14:39:29.002Z,58.20
2019-01-23T14:41:58.469Z,61.10
2019-01-23T14:44:27.837Z,59.43
2019-01-23T14:46:57.287Z,57.63
2019-01-23T14:49:27.973Z,61.13
2019-01-23T14:51:57.367Z,57.07
2019-01-23T14:54:26.789Z,56.60
2019-01-23T14:56:56.192Z,58.30
2019-01-23T14:59:25.594Z,56.80
2019-01-23T15:01:54.955Z,55.40
2019-01-23T15:04:24.316Z,59.50
2019-01-23T15:06:53.707Z,55.23
2019-01-23T15:09:23.090Z,58.83
2019-01-23T15:11:52.463Z,58.97
2019-01-23T15:14:21.875Z,59.37
2019-01-23T15:16:51.298Z,59.10
2019-01-23T15:19:20.700Z,53.87
2019-01-23T15:21:50.098Z,54.67
2019-01-23T15:24:19.528Z,52.13
2019-01-23T15:26:48.976Z,51.37
2019-01-23T15:29:18.461Z,50.67
2019-01-23T15:31:47.970Z,52.73
2019-01-23T15:34:17.615Z,59.43
2019-01-23T15:36:47.334Z,54.27
2019-01-23T15:39:17.058Z,51.03
2019-01-23T15:41:46.438Z,51.80
2019-01-23T15:44:15.836Z,50.00
2019-01-23T15:46:45.309Z,50.63
2019-01-23T15:49:14.687Z,53.53
2019-01-23T15:51:44.200Z,53.53
2019-01-23T15:54:13.591Z,52.97
2019-01-23T15:56:45.277Z,52.73
2019-01-23T15:59:14.989Z,47.90
2019-01-23T16:01:44.464Z,54.00
2019-01-23T16:04:14.134Z,53.33
2019-01-23T16:06:43.672Z,50.03
2019-01-23T16:09:13.141Z,56.97
2019-01-23T16:11:42.541Z,58.47
2019-01-23T16:14:12.022Z,55.97
2019-01-23T16:16:44.847Z,52.77
2019-01-23T16:19:13.058Z,54.70
2019-01-23T16:21:45.766Z,57.30
2019-01-23T16:24:14.390Z,63.77
2019-01-23T16:26:43.883Z,58.33
2019-01-23T16:29:13.806Z,63.20
2019-01-23T16:31:43.445Z,67.67
2019-01-23T16:34:12.931Z,56.70
2019-01-23T16:36:42.371Z,62.67
2019-01-23T16:39:11.747Z,55.23
2019-01-23T16:41:41.113Z,53.87
2019-01-23T16:44:10.594Z,58.90
2019-01-23T16:46:39.958Z,56.17
2019-01-23T16:49:09.328Z,56.07
2019-01-23T16:51:38.836Z,54.50
2019-01-23T16:54:08.195Z,64.53
2019-01-23T16:56:37.587Z,58.13
2019-01-23T16:59:07.183Z,60.67
2019-01-23T17:01:36.576Z,57.53
2019-01-23T17:04:06.175Z,55.90
2019-01-23T17:06:35.599Z,54.03
2019-01-23T17:09:10.109Z,52.93
2019-01-23T17:11:39.610Z,51.83
2019-01-23T17:14:09.049Z,54.50
2019-01-23T17:16:38.595Z,56.40
2019-01-23T17:19:08.160Z,56.27
2019-01-23T17:21:37.554Z,60.57
2019-01-23T17:24:06.958Z,54.97
2019-01-23T17:26:36.437Z,54.30
2019-01-23T17:29:05.936Z,57.70
2019-01-23T17:31:35.303Z,56.17
2019-01-23T17:34:05.030Z,56.83
2019-01-23T17:36:34.412Z,57.93
2019-01-23T17:39:06.803Z,53.60
2019-01-23T17:41:36.171Z,56.30
2019-01-23T17:44:05.838Z,57.47
2019-01-23T17:46:35.464Z,59.73
2019-01-23T17:49:05.220Z,60.23
2019-01-23T17:51:34.595Z,57.97
2019-01-23T17:54:04.560Z,55.10
2019-01-23T17:56:36.161Z,58.20
2019-01-23T17:59:07.068Z,55.20
2019-01-23T18:01:36.544Z,55.70
2019-01-23T18:04:06.145Z,59.60
2019-01-23T18:06:35.750Z,51.90
2019-01-23T18:09:07.915Z,57.77
2019-01-23T18:11:37.283Z,54.20
2019-01-23T18:14:06.749Z,77.50
2019-01-23T18:16:36.119Z,63.77
2019-01-23T18:19:05.736Z,54.13
2019-01-23T18:21:35.102Z,58.90
2019-01-23T18:24:04.868Z,44.40
2019-01-23T18:26:37.719Z,55.10
2019-01-23T18:29:05.323Z,59.20
2019-01-23T18:31:34.850Z,55.30
2019-01-23T18:34:13.246Z,51.80
2019-01-23T18:37:05.301Z,56.53
2019-01-23T18:40:03.014Z,54.67
2019-01-23T18:42:35.444Z,51.30
2019-01-23T18:45:10.632Z,59.10
2019-01-23T18:47:57.959Z,61.30
2019-01-23T18:51:00.167Z,53.53
2019-01-23T18:53:29.619Z,54.23
2019-01-23T18:56:00.712Z,58.70
2019-01-23T18:58:30.275Z,52.83
2019-01-23T19:00:59.646Z,55.47
2019-01-23T19:03:30.052Z,57.37
2019-01-23T19:05:59.426Z,62.60
2019-01-23T19:08:28.832Z,54.73
2019-01-23T19:10:58.276Z,53.97
2019-01-23T19:13:27.733Z,53.57
2019-01-23T19:15:57.128Z,57.17
2019-01-23T19:18:26.666Z,56.07
2019-01-23T19:20:56.138Z,53.27
2019-01-23T19:23:27.519Z,51.17
2019-01-23T19:25:56.919Z,52.13
2019-01-23T19:28:26.437Z,55.87
2019-01-23T19:30:55.926Z,60.20
2019-01-23T19:33:25.356Z,54.70
2019-01-23T19:35:54.748Z,52.83
2019-01-23T19:38:24.122Z,61.60
2019-01-23T19:40:53.514Z,56.37
2019-01-23T19:43:22.876Z,51.83
2019-01-23T19:45:52.256Z,55.80
2019-01-23T19:48:21.767Z,59.00
2019-01-23T19:50:51.165Z,57.90
2019-01-23T19:53:20.564Z,57.93
2019-01-23T19:55:50.018Z,49.70
2019-01-23T19:58:19.391Z,56.27
2019-01-23T20:00:48.760Z,54.73
2019-01-23T20:03:20.531Z,52.50
2019-01-23T20:05:49.313Z,58.43
2019-01-23T20:08:18.830Z,53.10
2019-01-23T20:10:48.321Z,50.00
2019-01-23T20:13:17.847Z,51.87
2019-01-23T20:15:47.362Z,52.70
2019-01-23T20:18:16.748Z,50.13
2019-01-23T20:20:46.252Z,51.20
2019-01-23T20:23:15.607Z,53.43
2019-01-23T20:25:45.011Z,51.03
2019-01-23T20:28:14.395Z,53.13
2019-01-23T20:30:44.280Z,54.23
2019-01-23T20:33:13.832Z,50.67
2019-01-23T20:35:43.239Z,47.63
2019-01-23T20:38:12.668Z,50.03
2019-01-23T20:40:42.232Z,55.20
2019-01-23T20:43:11.746Z,51.40
2019-01-23T20:45:41.163Z,48.70
2019-01-23T20:48:10.580Z,50.33
2019-01-23T20:50:39.952Z,52.43
2019-01-23T20:53:09.464Z,50.33
2019-01-23T20:55:39.222Z,49.07
2019-01-23T20:58:08.941Z,49.60
2019-01-23T21:00:38.839Z,48.27
2019-01-23T21:03:10.994Z,45.70
2019-01-23T21:05:40.485Z,52.07
2019-01-23T21:08:09.932Z,48.47
2019-01-23T21:10:39.371Z,51.13
2019-01-23T21:13:08.766Z,56.27
2019-01-23T21:15:38.370Z,52.10
2019-01-23T21:18:07.810Z,54.70
2019-01-23T21:20:37.268Z,51.90
2019-01-23T21:23:06.813Z,51.67
2019-01-23T21:25:36.318Z,55.83
2019-01-23T21:28:05.846Z,49.20
2019-01-23T21:30:35.234Z,49.97
2019-01-23T21:33:04.914Z,51.53
2019-01-23T21:35:34.283Z,58.90
2019-01-23T21:38:03.742Z,52.43
2019-01-23T21:40:33.189Z,53.13
2019-01-23T21:43:02.847Z,60.57
2019-01-23T21:45:32.406Z,53.23
2019-01-23T21:48:01.890Z,51.37
2019-01-23T21:50:31.294Z,54.40
2019-01-23T21:53:00.726Z,54.20
2019-01-23T21:55:30.165Z,52.60
2019-01-23T21:57:59.687Z,60.03
2019-01-23T22:00:35.102Z,57.00
2019-01-23T22:03:06.719Z,59.33
2019-01-23T22:05:36.252Z,52.80
2019-01-23T22:08:05.852Z,53.90
2019-01-23T22:10:35.222Z,51.20
2019-01-23T22:13:05.061Z,50.87
2019-01-23T22:15:34.555Z,55.63
2019-01-23T22:18:04.810Z,55.33
2019-01-23T22:20:34.206Z,54.83
2019-01-23T22:23:05.429Z,54.23
2019-01-23T22:25:34.824Z,56.70
2019-01-23T22:28:04.658Z,52.53
2019-01-23T22:30:34.690Z,57.40
2019-01-23T22:33:07.126Z,56.60
2019-01-23T22:35:36.483Z,48.50
2019-01-23T22:38:06.510Z,51.40
2019-01-23T22:40:35.902Z,57.80
2019-01-23T22:43:05.410Z,51.10
2019-01-23T22:45:34.799Z,49.63
2019-01-23T22:48:05.940Z,50.57
2019-01-23T22:50:37.126Z,53.67
2019-01-23T22:53:06.645Z,50.83
2019-01-23T22:55:36.035Z,51.30
2019-01-23T22:58:05.653Z,48.40
2019-01-23T23:00:43.949Z,52.77
2019-01-23T23:03:14.658Z,48.97
2019-01-23T23:05:44.043Z,51.57
2019-01-23T23:08:13.490Z,48.93
2019-01-23T23:10:43.023Z,49.00
2019-01-23T23:13:12.484Z,50.07
2019-01-23T23:15:41.903Z,46.07
2019-01-23T23:18:11.433Z,51.40
2019-01-23T23:20:40.825Z,54.17
2019-01-23T23:23:10.210Z,51.47
2019-01-23T23:25:39.634Z,52.10
2019-01-23T23:28:09.252Z,49.63
2019-01-23T23:30:38.676Z,52.07
2019-01-23T23:33:08.156Z,51.50
2019-01-23T23:35:37.640Z,49.70
2019-01-23T23:38:07.090Z,48.40
2019-01-23T23:40:36.506Z,50.73
2019-01-23T23:43:06.911Z,48.77
2019-01-23T23:45:36.333Z,50.00
2019-01-23T23:48:05.869Z,50.13
2019-01-23T23:50:35.360Z,48.13
2019-01-23T23:53:04.870Z,53.00
2019-01-23T23:55:34.232Z,53.00
2019-01-23T23:58:03.722Z,49.40
